createdAt,value
2022-10-22T00:02:07.669Z,13.57
2022-10-22T00:04:35.787Z,19.33
2022-10-22T00:07:03.765Z,19.70
2022-10-22T00:09:31.646Z,17.30
2022-10-22T00:11:59.354Z,18.70
2022-10-22T00:14:27.168Z,22.13
2022-10-22T00:16:56.322Z,18.93
2022-10-22T00:19:25.375Z,27.73
2022-10-22T00:21:53.171Z,17.33
2022-10-22T00:24:20.934Z,23.20
2022-10-22T00:26:48.715Z,18.53
2022-10-22T00:29:18.672Z,18.63
2022-10-22T00:31:49.745Z,20.30
2022-10-22T00:34:17.942Z,18.80
2022-10-22T00:36:47.326Z,28.63
2022-10-22T00:39:16.180Z,24.20
2022-10-22T00:41:44.288Z,25.33
2022-10-22T00:44:45.281Z,22.20
2022-10-22T00:47:13.465Z,21.90
2022-10-22T00:49:42.594Z,26.37
2022-10-22T00:52:12.465Z,20.07
2022-10-22T00:54:40.711Z,20.80
2022-10-22T00:57:08.593Z,17.77
2022-10-22T00:59:37.705Z,16.87
2022-10-22T01:02:05.493Z,21.70
2022-10-22T01:04:33.966Z,31.77
2022-10-22T01:07:02.074Z,19.10
2022-10-22T01:09:35.571Z,23.70
2022-10-22T01:12:06.329Z,20.37
2022-10-22T01:14:37.541Z,22.47
2022-10-22T01:17:08.184Z,20.00
2022-10-22T01:19:45.785Z,28.67
2022-10-22T01:22:19.855Z,23.20
2022-10-22T01:24:59.777Z,22.13
2022-10-22T01:27:33.456Z,23.83
2022-10-22T01:30:05.297Z,20.00
2022-10-22T01:32:37.598Z,24.57
2022-10-22T01:35:08.888Z,19.57
2022-10-22T01:37:39.777Z,20.93
2022-10-22T01:40:09.411Z,22.70
2022-10-22T01:42:37.162Z,21.90
2022-10-22T01:45:12.948Z,25.37
2022-10-22T01:47:48.319Z,25.90
2022-10-22T01:50:33.646Z,19.77
2022-10-22T01:53:27.500Z,24.10
2022-10-22T01:56:11.066Z,23.63
2022-10-22T01:58:43.786Z,19.43
2022-10-22T02:01:18.620Z,19.23
2022-10-22T02:03:49.777Z,18.30
2022-10-22T02:06:20.541Z,21.63
2022-10-22T02:08:49.901Z,21.57
2022-10-22T02:11:17.962Z,15.37
2022-10-22T02:13:47.873Z,22.10
2022-10-22T02:16:19.905Z,14.30
2022-10-22T02:18:50.338Z,18.50
2022-10-22T02:21:18.126Z,15.37
2022-10-22T02:23:46.678Z,19.33
2022-10-22T02:26:18.074Z,20.70
2022-10-22T02:28:50.736Z,24.67
2022-10-22T02:31:24.048Z,23.20
2022-10-22T02:33:54.246Z,19.33
2022-10-22T02:36:22.476Z,19.20
2022-10-22T02:38:52.301Z,15.60
2022-10-22T02:41:20.320Z,23.30
2022-10-22T02:43:51.970Z,17.53
2022-10-22T02:46:21.444Z,16.97
2022-10-22T02:48:49.160Z,15.30
2022-10-22T02:51:16.915Z,22.07
2022-10-22T02:53:44.629Z,17.97
2022-10-22T02:56:12.593Z,15.63
2022-10-22T02:58:40.372Z,20.23
2022-10-22T03:01:09.513Z,22.70
2022-10-22T03:03:41.355Z,22.27
2022-10-22T03:06:10.035Z,18.13
2022-10-22T03:08:37.775Z,21.43
2022-10-22T03:11:05.508Z,19.87
2022-10-22T03:13:33.228Z,17.87
2022-10-22T03:16:01.028Z,20.33
2022-10-22T03:18:29.060Z,20.80
2022-10-22T03:21:05.837Z,22.93
2022-10-22T03:23:33.910Z,21.00
2022-10-22T03:26:01.918Z,26.23
2022-10-22T03:28:29.908Z,20.00
2022-10-22T03:30:57.636Z,25.80
2022-10-22T03:33:25.336Z,22.97
2022-10-22T03:35:53.152Z,25.70
2022-10-22T03:38:22.350Z,24.30
2022-10-22T03:40:50.120Z,18.43
2022-10-22T03:43:18.108Z,18.67
2022-10-22T03:45:45.819Z,20.63
2022-10-22T03:48:13.510Z,19.03
2022-10-22T03:50:41.232Z,22.43
2022-10-22T03:53:10.572Z,23.70
2022-10-22T03:55:41.858Z,35.60
2022-10-22T03:58:09.568Z,19.27
2022-10-22T04:00:37.659Z,21.73
2022-10-22T04:03:05.714Z,19.73
2022-10-22T04:05:33.532Z,20.57
2022-10-22T04:08:01.769Z,25.13
2022-10-22T04:10:29.542Z,28.50
2022-10-22T04:12:58.806Z,23.70
2022-10-22T04:15:29.298Z,34.10
2022-10-22T04:17:57.190Z,21.60
2022-10-22T04:20:24.961Z,26.53
2022-10-22T04:22:52.671Z,21.43
2022-10-22T04:25:20.397Z,20.70
2022-10-22T04:27:48.112Z,17.50
2022-10-22T04:30:17.225Z,22.53
2022-10-22T04:32:44.967Z,20.17
2022-10-22T04:35:12.793Z,20.67
2022-10-22T04:37:40.560Z,27.27
2022-10-22T04:40:09.789Z,20.70
2022-10-22T04:42:37.603Z,22.73
2022-10-22T04:45:05.934Z,28.83
2022-10-22T04:47:34.974Z,18.93
2022-10-22T04:50:03.041Z,31.63
2022-10-22T04:52:32.220Z,19.80
2022-10-22T04:54:59.897Z,17.30
2022-10-22T04:57:30.961Z,20.37
2022-10-22T04:59:58.672Z,21.30
2022-10-22T05:02:26.437Z,27.33
2022-10-22T05:04:55.481Z,26.20
2022-10-22T05:07:23.751Z,27.40
2022-10-22T05:09:51.425Z,24.20
2022-10-22T05:12:19.154Z,25.77
2022-10-22T05:14:46.874Z,35.13
2022-10-22T05:17:14.664Z,24.30
2022-10-22T05:19:42.354Z,25.00
2022-10-22T05:22:11.467Z,26.73
2022-10-22T05:24:39.256Z,23.35
2022-10-22T05:27:07.016Z,23.90
2022-10-22T05:29:34.821Z,22.83
2022-10-22T05:32:02.493Z,63.67
2022-10-22T05:34:30.233Z,30.20
2022-10-22T05:36:57.964Z,27.43
2022-10-22T05:39:27.235Z,25.00
2022-10-22T05:41:54.946Z,26.43
2022-10-22T05:44:22.667Z,24.30
2022-10-22T05:46:50.410Z,21.57
2022-10-22T05:49:18.127Z,21.13
2022-10-22T05:51:47.987Z,25.00
2022-10-22T05:54:18.867Z,20.03
2022-10-22T05:56:48.053Z,23.60
2022-10-22T05:59:15.768Z,20.50
2022-10-22T06:01:44.333Z,20.07
2022-10-22T06:04:13.741Z,21.93
2022-10-22T06:06:44.430Z,19.07
2022-10-22T06:09:16.046Z,19.27
2022-10-22T06:11:43.918Z,20.40
2022-10-22T06:14:13.337Z,16.10
2022-10-22T06:16:41.639Z,17.53
2022-10-22T06:19:10.526Z,20.90
2022-10-22T06:21:38.649Z,17.07
2022-10-22T06:24:07.448Z,19.43
2022-10-22T06:26:35.145Z,19.13
2022-10-22T06:29:03.701Z,19.27
2022-10-22T06:31:36.692Z,18.67
2022-10-22T06:34:04.902Z,16.00
2022-10-22T06:36:32.812Z,17.37
2022-10-22T06:39:00.591Z,20.43
2022-10-22T06:41:28.906Z,18.37
2022-10-22T06:43:58.306Z,16.43
2022-10-22T06:46:26.557Z,16.23
2022-10-22T06:48:57.521Z,15.83
2022-10-22T06:51:25.509Z,20.00
2022-10-22T06:53:54.076Z,17.20
2022-10-22T06:56:23.129Z,22.50
2022-10-22T06:58:51.696Z,19.93
2022-10-22T07:01:21.604Z,28.20
2022-10-22T07:03:51.391Z,19.73
2022-10-22T07:06:21.388Z,19.60
2022-10-22T07:08:49.512Z,15.43
2022-10-22T07:11:19.024Z,15.97
2022-10-22T07:13:47.658Z,14.30
2022-10-22T07:16:16.124Z,93.30
2022-10-22T07:18:44.572Z,24.03
2022-10-22T07:21:13.669Z,17.13
2022-10-22T07:23:42.862Z,16.83
2022-10-22T07:26:10.918Z,17.40
2022-10-22T07:28:39.868Z,38.20
2022-10-22T07:31:08.418Z,25.20
2022-10-22T07:33:36.771Z,26.07
2022-10-22T07:36:06.686Z,18.50
2022-10-22T07:38:34.995Z,15.33
2022-10-22T07:41:15.587Z,20.43
2022-10-22T07:43:43.805Z,14.00
2022-10-22T07:46:11.828Z,15.57
2022-10-22T07:48:44.566Z,15.10
2022-10-22T07:51:12.346Z,15.07
2022-10-22T07:53:40.299Z,17.83
2022-10-22T07:56:09.753Z,15.60
2022-10-22T07:58:37.609Z,14.57
2022-10-22T08:01:06.552Z,13.97
2022-10-22T08:03:34.785Z,16.40
2022-10-22T08:06:02.867Z,16.80
2022-10-22T08:08:31.231Z,13.00
2022-10-22T08:11:01.852Z,14.77
2022-10-22T08:13:31.636Z,17.10
2022-10-22T08:16:00.265Z,17.80
2022-10-22T08:18:28.765Z,14.17
2022-10-22T08:20:56.673Z,12.30
2022-10-22T08:23:27.462Z,16.37
2022-10-22T08:25:57.251Z,33.63
2022-10-22T08:28:25.099Z,20.77
2022-10-22T08:30:54.269Z,13.63
2022-10-22T08:33:22.326Z,15.93
2022-10-22T08:35:50.611Z,14.33
2022-10-22T08:38:18.614Z,17.07
2022-10-22T08:40:50.835Z,26.27
2022-10-22T08:43:37.828Z,16.03
2022-10-22T08:46:15.490Z,16.90
2022-10-22T08:48:46.944Z,15.77
2022-10-22T08:51:18.321Z,15.00
2022-10-22T08:53:54.999Z,25.83
2022-10-22T08:56:23.506Z,17.03
2022-10-22T08:58:56.649Z,15.10
2022-10-22T09:01:32.764Z,12.87
2022-10-22T09:04:04.677Z,12.70
2022-10-22T09:06:34.641Z,14.17
2022-10-22T09:09:06.503Z,12.90
2022-10-22T09:11:36.181Z,21.73
2022-10-22T09:14:04.419Z,13.37
2022-10-22T09:16:38.422Z,10.83
2022-10-22T09:19:16.683Z,10.27
2022-10-22T09:21:53.359Z,12.30
2022-10-22T09:24:32.171Z,12.57
2022-10-22T09:27:01.953Z,10.57
2022-10-22T09:29:34.066Z,9.97
2022-10-22T09:32:03.344Z,18.40
2022-10-22T09:34:31.202Z,10.27
2022-10-22T09:36:59.909Z,13.57
2022-10-22T09:39:29.591Z,10.57
2022-10-22T09:41:57.289Z,9.47
2022-10-22T09:44:25.207Z,10.03
2022-10-22T09:46:52.913Z,11.33
2022-10-22T09:49:23.954Z,13.70
2022-10-22T09:51:54.507Z,8.23
2022-10-22T09:54:24.470Z,11.50
2022-10-22T09:56:57.911Z,10.93
2022-10-22T09:59:29.277Z,13.73
2022-10-22T10:02:13.328Z,11.23
2022-10-22T10:04:50.882Z,9.27
2022-10-22T10:07:20.373Z,10.97
2022-10-22T10:09:48.560Z,9.77
2022-10-22T10:12:25.013Z,10.00
2022-10-22T10:15:01.851Z,13.90
2022-10-22T10:17:35.042Z,15.53
2022-10-22T10:20:17.150Z,14.27
2022-10-22T10:22:54.879Z,11.77
2022-10-22T10:25:44.112Z,9.77
2022-10-22T10:28:23.165Z,10.23
2022-10-22T10:30:56.076Z,11.27
2022-10-22T10:33:31.290Z,8.60
2022-10-22T10:36:05.124Z,13.73
2022-10-22T10:38:39.325Z,10.70
2022-10-22T10:41:14.966Z,8.93
2022-10-22T10:43:53.705Z,10.97
2022-10-22T10:46:26.821Z,12.03
2022-10-22T10:48:56.954Z,10.35
2022-10-22T10:51:39.373Z,10.13
2022-10-22T10:54:21.071Z,13.20
2022-10-22T10:56:53.010Z,10.73
2022-10-22T10:59:32.352Z,17.03
2022-10-22T11:02:35.029Z,11.77
2022-10-22T11:05:23.724Z,9.90
2022-10-22T11:07:57.168Z,10.53
2022-10-22T11:10:32.470Z,12.30
2022-10-22T11:13:05.010Z,10.27
2022-10-22T11:15:34.461Z,14.13
2022-10-22T11:18:09.338Z,11.95
2022-10-22T11:20:45.964Z,13.60
2022-10-22T11:23:20.529Z,8.00
2022-10-22T11:25:50.230Z,11.03
2022-10-22T11:28:21.336Z,10.87
2022-10-22T11:30:52.464Z,9.23
2022-10-22T11:33:23.456Z,10.10
2022-10-22T11:35:51.589Z,10.30
2022-10-22T11:38:23.882Z,10.97
2022-10-22T11:40:58.410Z,11.57
2022-10-22T11:43:32.914Z,7.47
2022-10-22T11:46:10.514Z,15.83
2022-10-22T11:48:39.330Z,7.17
2022-10-22T11:51:35.383Z,6.03
2022-10-22T11:54:04.679Z,8.83
2022-10-22T11:56:38.452Z,14.83
2022-10-22T11:59:13.957Z,10.70
2022-10-22T12:01:43.060Z,9.50
2022-10-22T12:04:23.187Z,7.20
2022-10-22T12:06:59.052Z,5.37
2022-10-22T12:09:30.258Z,7.70
2022-10-22T12:12:04.355Z,6.63
2022-10-22T12:14:35.357Z,6.70
2022-10-22T12:17:08.660Z,4.97
2022-10-22T12:19:38.401Z,11.57
2022-10-22T12:22:15.139Z,5.33
2022-10-22T12:24:45.585Z,7.20
2022-10-22T12:27:22.333Z,4.07
2022-10-22T12:29:56.033Z,4.90
2022-10-22T12:32:24.121Z,3.20
2022-10-22T12:34:53.145Z,3.60
2022-10-22T12:37:22.197Z,5.20
2022-10-22T12:39:49.970Z,4.23
2022-10-22T12:42:18.910Z,2.70
2022-10-22T12:44:46.641Z,3.40
2022-10-22T12:47:17.240Z,4.00
2022-10-22T12:49:47.062Z,3.33
2022-10-22T12:52:17.396Z,4.03
2022-10-22T12:54:48.230Z,4.20
2022-10-22T12:57:18.858Z,3.10
2022-10-22T12:59:49.928Z,3.27
2022-10-22T13:02:21.738Z,3.40
2022-10-22T13:05:15.162Z,4.20
2022-10-22T13:07:45.335Z,8.70
2022-10-22T13:10:20.745Z,2.57
2022-10-22T13:12:52.330Z,4.03
2022-10-22T13:15:22.412Z,3.17
2022-10-22T13:17:50.587Z,1.90
2022-10-22T13:20:21.580Z,4.63
2022-10-22T13:23:00.047Z,4.93
2022-10-22T13:25:33.880Z,5.93
2022-10-22T13:28:04.032Z,1.80
2022-10-22T13:30:33.518Z,1.70
2022-10-22T13:33:02.952Z,3.33
2022-10-22T13:35:34.318Z,1.43
2022-10-22T13:38:02.150Z,2.10
2022-10-22T13:40:31.357Z,3.77
2022-10-22T13:42:59.116Z,6.30
2022-10-22T13:45:26.883Z,11.87
2022-10-22T13:47:55.725Z,4.20
2022-10-22T13:50:23.434Z,3.10
2022-10-22T13:52:52.762Z,3.40
2022-10-22T13:55:23.321Z,2.60
2022-10-22T13:57:52.583Z,2.80
2022-10-22T14:00:21.735Z,3.50
2022-10-22T14:02:51.753Z,6.33
2022-10-22T14:05:20.591Z,2.63
2022-10-22T14:07:48.502Z,2.10
2022-10-22T14:10:19.250Z,5.03
2022-10-22T14:12:52.306Z,3.23
2022-10-22T14:15:24.804Z,3.37
2022-10-22T14:17:55.110Z,3.80
2022-10-22T14:20:24.341Z,5.73
2022-10-22T14:22:52.267Z,5.60
2022-10-22T14:25:21.672Z,4.43
2022-10-22T14:27:49.703Z,4.07
2022-10-22T14:30:18.450Z,3.87
2022-10-22T14:32:48.787Z,3.63
2022-10-22T14:35:18.461Z,2.63
2022-10-22T14:37:46.233Z,3.10
2022-10-22T14:40:15.512Z,4.60
2022-10-22T14:42:44.581Z,3.50
2022-10-22T14:45:16.979Z,7.67
2022-10-22T14:47:44.767Z,3.20
2022-10-22T14:50:14.545Z,6.93
2022-10-22T14:52:43.544Z,8.97
2022-10-22T14:55:11.907Z,9.07
2022-10-22T14:57:40.433Z,5.90
2022-10-22T15:00:11.429Z,2.17
2022-10-22T15:02:39.414Z,7.00
2022-10-22T15:05:08.532Z,3.70
2022-10-22T15:07:38.272Z,4.30
2022-10-22T15:10:07.979Z,3.40
2022-10-22T15:12:35.796Z,7.83
2022-10-22T15:15:03.709Z,5.70
2022-10-22T15:17:31.467Z,7.83
2022-10-22T15:20:00.526Z,2.00
2022-10-22T15:22:28.678Z,3.87
2022-10-22T15:24:57.773Z,7.60
2022-10-22T15:27:25.575Z,11.30
2022-10-22T15:29:53.610Z,8.53
2022-10-22T15:32:21.330Z,4.00
2022-10-22T15:34:49.321Z,6.53
2022-10-22T15:37:17.037Z,3.00
2022-10-22T15:39:44.743Z,4.37
2022-10-22T15:42:14.796Z,4.73
2022-10-22T15:44:43.043Z,4.00
2022-10-22T15:47:10.797Z,10.53
2022-10-22T15:49:41.706Z,2.90
2022-10-22T15:52:09.992Z,3.90
2022-10-22T15:54:37.725Z,3.13
2022-10-22T15:57:08.571Z,3.63
2022-10-22T15:59:37.796Z,3.17
2022-10-22T16:02:07.304Z,6.13
2022-10-22T16:04:35.058Z,3.97
2022-10-22T16:07:03.517Z,4.23
2022-10-22T16:09:31.382Z,6.30
2022-10-22T16:11:59.183Z,4.00
2022-10-22T16:14:28.671Z,8.30
2022-10-22T16:16:59.548Z,10.10
2022-10-22T16:19:27.319Z,5.70
2022-10-22T16:21:56.555Z,8.03
2022-10-22T16:24:24.480Z,5.33
2022-10-22T16:26:53.264Z,10.07
2022-10-22T16:29:21.085Z,9.10
2022-10-22T16:31:48.812Z,8.13
2022-10-22T16:34:17.868Z,11.30
2022-10-22T16:36:45.700Z,9.73
2022-10-22T16:39:13.536Z,7.60
2022-10-22T16:41:41.284Z,70.93
2022-10-22T16:44:09.064Z,7.47
2022-10-22T16:46:38.431Z,6.97
2022-10-22T16:49:07.621Z,20.40
2022-10-22T16:51:37.298Z,11.57
2022-10-22T16:54:08.120Z,9.50
2022-10-22T16:56:39.123Z,9.33
2022-10-22T16:59:07.342Z,8.30
2022-10-22T17:01:40.350Z,8.17
2022-10-22T17:04:08.839Z,8.37
2022-10-22T17:06:37.938Z,8.27
2022-10-22T17:09:06.001Z,7.50
2022-10-22T17:11:36.363Z,8.50
2022-10-22T17:14:06.087Z,12.00
2022-10-22T17:16:33.821Z,8.67
2022-10-22T17:19:03.955Z,15.57
2022-10-22T17:21:31.875Z,8.10
2022-10-22T17:24:00.932Z,11.50
2022-10-22T17:26:28.621Z,6.57
2022-10-22T17:28:56.396Z,8.90
2022-10-22T17:31:25.760Z,8.33
2022-10-22T17:33:55.532Z,12.90
2022-10-22T17:36:24.290Z,31.43
2022-10-22T17:38:53.668Z,7.93
2022-10-22T17:41:24.295Z,9.70
2022-10-22T17:43:52.230Z,12.33
2022-10-22T17:46:21.451Z,26.47
2022-10-22T17:48:52.834Z,12.03
2022-10-22T17:51:21.371Z,10.23
2022-10-22T17:53:50.189Z,15.17
2022-10-22T17:56:19.746Z,9.80
2022-10-22T17:58:48.933Z,10.40
2022-10-22T18:01:21.576Z,7.43
2022-10-22T18:03:49.840Z,7.97
2022-10-22T18:06:17.712Z,10.93
2022-10-22T18:08:45.860Z,10.30
2022-10-22T18:11:17.659Z,7.77
2022-10-22T18:13:47.559Z,12.90
2022-10-22T18:16:16.599Z,21.40
2022-10-22T18:18:46.223Z,9.57
2022-10-22T18:21:14.457Z,9.03
2022-10-22T18:23:42.387Z,7.93
2022-10-22T18:26:10.237Z,5.60
2022-10-22T18:28:38.216Z,12.73
2022-10-22T18:31:07.202Z,7.03
2022-10-22T18:33:36.900Z,3.90
2022-10-22T18:36:05.912Z,9.60
2022-10-22T18:38:34.043Z,8.57
2022-10-22T18:41:01.877Z,6.00
2022-10-22T18:43:29.629Z,8.40
2022-10-22T18:45:57.395Z,14.17
2022-10-22T18:48:25.266Z,6.60
2022-10-22T18:51:01.813Z,8.83
2022-10-22T18:53:29.771Z,7.40
2022-10-22T18:55:57.496Z,12.70
2022-10-22T18:58:25.281Z,10.73
2022-10-22T19:00:53.104Z,5.60
2022-10-22T19:03:20.957Z,11.17
2022-10-22T19:05:50.900Z,9.10
2022-10-22T19:08:20.834Z,10.80
2022-10-22T19:10:49.085Z,7.37
2022-10-22T19:13:18.857Z,6.03
2022-10-22T19:15:46.635Z,4.33
2022-10-22T19:18:15.051Z,5.07
2022-10-22T19:20:44.418Z,13.13
2022-10-22T19:23:12.193Z,4.23
2022-10-22T19:25:41.583Z,5.97
2022-10-22T19:28:09.341Z,4.97
2022-10-22T19:30:37.123Z,4.23
2022-10-22T19:33:04.913Z,5.10
2022-10-22T19:35:32.657Z,3.57
2022-10-22T19:38:00.437Z,13.37
2022-10-22T19:40:28.586Z,10.90
2022-10-22T19:42:57.630Z,7.00
2022-10-22T19:45:25.374Z,7.03
2022-10-22T19:47:53.116Z,10.83
2022-10-22T19:50:20.991Z,6.13
2022-10-22T19:52:48.716Z,5.93
2022-10-22T19:55:16.562Z,5.33
2022-10-22T19:57:44.622Z,5.07
2022-10-22T20:00:14.770Z,11.27
2022-10-22T20:02:42.636Z,7.13
2022-10-22T20:05:10.970Z,5.10
2022-10-22T20:07:38.977Z,4.00
2022-10-22T20:10:07.519Z,8.73
2022-10-22T20:12:35.328Z,6.00
2022-10-22T20:15:04.337Z,7.00
2022-10-22T20:17:33.953Z,8.63
2022-10-22T20:20:01.674Z,8.00
2022-10-22T20:22:29.398Z,7.77
2022-10-22T20:24:57.076Z,10.40
2022-10-22T20:27:25.291Z,4.87
2022-10-22T20:29:53.300Z,6.40
2022-10-22T20:32:22.056Z,8.17
2022-10-22T20:34:51.120Z,10.30
2022-10-22T20:37:18.843Z,10.17
2022-10-22T20:39:46.530Z,7.57
2022-10-22T20:42:15.399Z,5.70
2022-10-22T20:44:43.148Z,7.30
2022-10-22T20:47:13.630Z,8.03
2022-10-22T20:49:41.594Z,7.60
2022-10-22T20:52:10.709Z,6.00
2022-10-22T20:54:41.446Z,6.27
2022-10-22T20:57:09.550Z,8.77
2022-10-22T20:59:37.346Z,25.07
2022-10-22T21:02:05.465Z,8.70
2022-10-22T21:04:33.496Z,6.20
2022-10-22T21:07:02.894Z,9.60
2022-10-22T21:09:34.162Z,8.57
2022-10-22T21:12:03.490Z,9.57
2022-10-22T21:14:31.344Z,10.50
2022-10-22T21:17:00.216Z,5.00
2022-10-22T21:19:28.709Z,5.43
2022-10-22T21:21:56.408Z,7.07
2022-10-22T21:24:26.209Z,9.47
2022-10-22T21:26:55.264Z,5.17
2022-10-22T21:29:23.018Z,5.33
2022-10-22T21:31:50.693Z,12.90
2022-10-22T21:34:18.455Z,7.93
2022-10-22T21:39:14.948Z,7.87
2022-10-22T21:41:42.668Z,13.30
2022-10-22T21:44:11.783Z,7.90
2022-10-22T21:46:39.497Z,10.40
2022-10-22T21:49:07.261Z,8.07
2022-10-22T21:51:38.085Z,7.13
2022-10-22T21:54:06.284Z,4.97
2022-10-22T21:56:36.600Z,6.73
2022-10-22T21:59:05.236Z,5.50
2022-10-22T22:01:34.766Z,3.90
2022-10-22T22:04:04.219Z,7.00
2022-10-22T22:06:33.670Z,5.40
2022-10-22T22:09:02.990Z,3.47
2022-10-22T22:11:31.366Z,7.37
2022-10-22T22:13:59.830Z,7.43
2022-10-22T22:16:29.134Z,6.17
2022-10-22T22:19:00.451Z,8.17
2022-10-22T22:21:28.580Z,7.10
2022-10-22T22:23:56.497Z,5.30
2022-10-22T22:26:28.591Z,6.73
2022-10-22T22:28:58.535Z,4.80
2022-10-22T22:31:27.924Z,6.70
2022-10-22T22:34:01.076Z,8.60
2022-10-22T22:36:28.925Z,7.80
2022-10-22T22:38:56.943Z,5.33
2022-10-22T22:41:24.936Z,8.03
2022-10-22T22:43:52.770Z,7.20
2022-10-22T22:46:20.608Z,10.23
2022-10-22T22:48:48.670Z,8.00
2022-10-22T22:51:17.952Z,5.83
2022-10-22T22:53:45.778Z,7.50
2022-10-22T22:56:15.166Z,9.77
2022-10-22T22:58:43.034Z,11.50
2022-10-22T23:01:15.774Z,7.17
2022-10-22T23:03:45.612Z,13.80
2022-10-22T23:06:13.737Z,5.60
2022-10-22T23:08:43.222Z,11.73
2022-10-22T23:11:12.427Z,7.30
2022-10-22T23:13:40.623Z,8.33
2022-10-22T23:16:09.836Z,15.50
2022-10-22T23:18:37.502Z,15.43
2022-10-22T23:21:06.501Z,7.33
2022-10-22T23:23:34.589Z,9.40
2022-10-22T23:26:03.954Z,6.07
2022-10-22T23:28:31.771Z,12.03
2022-10-22T23:30:59.497Z,8.43
2022-10-22T23:33:27.576Z,17.33
2022-10-22T23:43:23.716Z,8.43
2022-10-22T23:45:51.475Z,6.93
2022-10-22T23:48:19.656Z,6.40
2022-10-22T23:50:47.709Z,9.60
2022-10-22T23:53:15.706Z,15.30
2022-10-22T23:55:44.575Z,16.10
2022-10-22T23:58:12.690Z,6.60
